ROMMA est une association bénévole à but non lucratif. Votre soutien est indispensable : ADHERER à ROMMA ou FAIRE un DON

Crest - (26, Drôme)

Vallée de la Drôme (315 m)   Longitude: 5°2' E   Latitude: 44°44' N Station partenaire n°62
 

Détail journalier du     <<     >>

Température Precipitation Humidité Pression Vent Dir Rafale Dir. rafale Ensol.
Heure (°C) (mm) (%) (hPa) (km/h) (km/h) (min)
01:00 21.0062101612SSO24SSO0
02:00 19.9068101610SSO23SSO0
03:00 19.406910167SSO19SSO0
04:00 17.907510163ENE18SSO0
05:00 17.107810152SSO10SSO0
06:00 16.008110151SE5ENE0
07:00 15.708410151SE5SE0
08:00 16.70811015010SSE0
09:00 19.207310143SE8ESE21
10:00 22.805910132ESE5ESE60
11:00 23.905510135SSO16NE60
12:00 25.405310125S19NE58
13:00 28.604310125ESE16SSO60
14:00 31.403810116SE23SE27
15:00 32.2037101110SE31SE46
16:00 31.9040101115SE47SE56
17:00 25.8051101113SE40NE33
18:00 22.2059101226SSO50SO9
19:00 20.4064101324SSO45NNO10
20:00 18.8071101423SSO50NNO0
21:00 17.3076101519SSO39SSO8
22:00 16.6078101615SSO39SSO0
23:00 16.1080101611SSO31NE0
minuit 15.9079101711NE32NE0

Graphique du 11-08-2019

 

Serveur OMMA